Adirondack, New York
Current Conditions -  °F | °C
As of 12:07 PM on Tuesday 21 Oct 2014 (Local Time) from KGFL Reporting Station
Light Rain Light Rain  
Wind Chill: 51°   Ceiling: 2700
Heat Index: 51°   Visibility: 9mi
Dew Point: 46°   Wind: 3mph
Humidity: 83%   Direction: 340°NNW
Pressure: 29.95"   Gusts: NA
Location:  43.76°N, 73.76°W
Report Text: KGFL 211607Z AUTO 34003KT 9SM -RA BKN027 BKN033 OVC050 11/08 A2995 RMK AO2 RAB1559 P0000 T01060078
Loading
Personal Weather Stations






























Interactive Weather Map
Tropical Storm Tracking
New forecast layout! Learn more

10-Day Weather Forecast

Advertisements
Track Severe Weather on mobile